Time;durP1;ratioP1;P1;durP2;ratioP2;P2;SDS_P1;SDS_P2;PMS_P1;PMS_P2;Temp;Humidity;BMP_temperature;BMP_pressure;BME280_temperature;BME280_humidity;BME280_pressure;Samples;Min_cycle;Max_cycle;Signal;HPM_P1;HPM_P2
2022/08/13 00:00:13;;;;;;;4.93;0.65;;;28.20;41.40;;;;;;5054027;28;20040;-75
2022/08/13 00:02:42;;;;;;;1.08;0.60;;;28.20;41.40;;;;;;5054311;28;20032;-75
2022/08/13 00:05:09;;;;;;;6.03;0.80;;;28.20;41.40;;;;;;5053670;28;20468;-75
2022/08/13 00:07:36;;;;;;;2.47;0.73;;;28.20;41.30;;;;;;5054041;28;20404;-76
2022/08/13 00:10:08;;;;;;;5.47;0.75;;;28.10;41.40;;;;;;5053790;28;20075;-75
2022/08/13 00:15:37;;;;;;;4.97;0.60;;;28.10;41.50;;;;;;5053752;28;19911;-75
2022/08/13 00:18:08;;;;;;;2.03;0.50;;;28.00;41.50;;;;;;5053960;28;20427;-75
2022/08/13 00:20:38;;;;;;;3.58;0.90;;;27.90;41.40;;;;;;5053892;28;20078;-75
2022/08/13 00:23:06;;;;;;;4.32;0.70;;;27.90;41.80;;;;;;5053581;28;20108;-76
2022/08/13 00:25:33;;;;;;;4.03;0.55;;;27.90;41.50;;;;;;5053326;28;20053;-75
2022/08/13 00:28:02;;;;;;;4.35;0.60;;;27.90;41.70;;;;;;5053573;28;20021;-75
2022/08/13 00:30:31;;;;;;;1.92;0.85;;;27.80;41.60;;;;;;5053789;28;20024;-75
2022/08/13 00:32:59;;;;;;;1.88;0.70;;;27.80;41.90;;;;;;5053656;28;20392;-75
2022/08/13 00:35:27;;;;;;;1.80;0.93;;;27.80;42.20;;;;;;5053281;28;20021;-75
2022/08/13 00:37:55;;;;;;;3.00;0.45;;;27.70;42.10;;;;;;5053456;28;20032;-75
2022/08/13 00:40:22;;;;;;;1.75;0.60;;;27.70;43.00;;;;;;5053307;28;20494;-75
2022/08/13 00:42:48;;;;;;;1.90;0.50;;;27.70;42.30;;;;;;5053320;28;20167;-75
2022/08/13 00:45:14;;;;;;;3.78;0.65;;;27.80;42.60;;;;;;5053240;28;20044;-75
2022/08/13 00:50:23;;;;;;;3.53;0.90;;;27.80;42.60;;;;;;5053425;28;20032;-75
2022/08/13 00:52:49;;;;;;;4.20;0.80;;;27.90;42.80;;;;;;5053051;28;20060;-75
2022/08/13 00:55:18;;;;;;;5.47;0.75;;;27.80;42.70;;;;;;5053281;28;20037;-75
2022/08/13 00:57:45;;;;;;;1.67;0.65;;;27.80;42.50;;;;;;5053223;28;20385;-75
2022/08/13 01:00:23;;;;;;;1.67;0.52;;;27.80;42.30;;;;;;5052789;28;20021;-75
2022/08/13 01:02:51;;;;;;;1.20;0.55;;;27.80;42.70;;;;;;5053279;28;20439;-75
2022/08/13 01:05:19;;;;;;;3.72;0.57;;;27.80;42.80;;;;;;5053406;28;20033;-75
2022/08/13 01:07:45;;;;;;;2.25;0.70;;;27.90;42.60;;;;;;5052768;28;20419;-75
2022/08/13 01:10:12;;;;;;;1.88;0.70;;;27.80;42.50;;;;;;5053293;28;20032;-75
2022/08/13 01:12:40;;;;;;;0.88;0.50;;;27.80;42.40;;;;;;5053053;28;20041;-75
2022/08/13 01:15:11;;;;;;;2.63;0.50;;;27.80;42.60;;;;;;5053299;28;20025;-75
2022/08/13 01:17:39;;;;;;;2.60;0.35;;;27.80;42.90;;;;;;5052959;28;20036;-75
2022/08/13 01:20:05;;;;;;;4.05;0.57;;;27.70;42.80;;;;;;5052901;28;20025;-75
2022/08/13 01:22:33;;;;;;;5.47;0.60;;;27.70;42.70;;;;;;5053071;28;20025;-75
2022/08/13 01:24:58;;;;;;;1.25;0.50;;;27.70;42.70;;;;;;5052912;28;20053;-75
2022/08/13 01:27:26;;;;;;;1.02;0.50;;;27.60;42.80;;;;;;5052818;28;20025;-75
2022/08/13 01:29:52;;;;;;;1.58;0.50;;;27.60;42.80;;;;;;5052857;28;20564;-75
2022/08/13 01:32:21;;;;;;;3.38;0.57;;;27.50;42.90;;;;;;5052419;28;20373;-75
2022/08/13 01:34:48;;;;;;;1.08;0.55;;;27.50;42.90;;;;;;5052943;28;20029;-75
2022/08/13 01:37:15;;;;;;;2.40;1.00;;;27.50;43.10;;;;;;5052737;28;20021;-75
2022/08/13 01:39:41;;;;;;;1.15;0.50;;;27.50;43.40;;;;;;5056396;28;20029;-75
2022/08/13 01:42:09;;;;;;;5.15;0.90;;;27.50;43.60;;;;;;5056627;28;20112;-75
2022/08/13 01:44:36;;;;;;;2.70;0.65;;;27.40;42.90;;;;;;5056920;28;20028;-75
2022/08/13 01:52:35;;;;;;;3.00;0.50;;;27.20;43.40;;;;;;5056513;28;20040;-75
2022/08/13 01:55:05;;;;;;;2.42;0.55;;;27.10;43.30;;;;;;5056779;28;20017;-75
2022/08/13 01:57:33;;;;;;;1.10;0.40;;;27.10;43.40;;;;;;5056290;28;20555;-75
2022/08/13 02:00:00;;;;;;;3.75;0.52;;;27.10;43.40;;;;;;5056352;28;20029;-75
2022/08/13 02:02:27;;;;;;;1.92;0.55;;;27.00;43.60;;;;;;5056300;28;20022;-75
2022/08/13 02:04:54;;;;;;;3.53;0.57;;;27.00;43.90;;;;;;5056203;28;20021;-75
2022/08/13 02:07:20;;;;;;;3.00;0.98;;;26.90;43.50;;;;;;5056402;28;20384;-75
2022/08/13 02:09:45;;;;;;;2.55;0.70;;;27.00;44.00;;;;;;5055881;28;20025;-75
2022/08/13 02:12:15;;;;;;;5.53;0.55;;;26.90;43.70;;;;;;5055953;28;20091;-75
2022/08/13 02:14:42;;;;;;;1.50;0.60;;;26.90;43.70;;;;;;5056092;28;20047;-75
2022/08/13 02:17:35;;;;;;;1.60;0.52;;;26.90;43.60;;;;;;5056256;28;20427;-75
2022/08/13 02:19:57;;;;;;;0.90;0.55;;;26.90;43.90;;;;;;5055709;28;20397;-75
2022/08/13 02:22:24;;;;;;;3.10;0.47;;;26.90;43.80;;;;;;5055784;28;20078;-75
2022/08/13 02:24:56;;;;;;;2.50;0.40;;;26.80;43.90;;;;;;5055896;28;20052;-75
2022/08/13 02:27:25;;;;;;;2.92;0.52;;;26.80;43.90;;;;;;5056129;28;20033;-75
2022/08/13 02:29:53;;;;;;;2.95;0.50;;;26.80;43.80;;;;;;5055930;28;20021;-75
2022/08/13 02:32:19;;;;;;;2.60;0.35;;;26.80;43.80;;;;;;5055541;28;20068;-75
2022/08/13 02:34:50;;;;;;;3.38;0.50;;;26.70;43.90;;;;;;5055927;28;20023;-75
2022/08/13 02:37:20;;;;;;;2.53;0.40;;;26.80;43.70;;;;;;5055780;28;20055;-75
2022/08/13 02:39:46;;;;;;;3.78;0.40;;;26.70;43.80;;;;;;5055790;28;20396;-75
2022/08/13 02:42:12;;;;;;;2.70;0.50;;;26.60;43.80;;;;;;5055848;28;20021;-75
2022/08/13 02:44:39;;;;;;;2.38;0.60;;;26.60;44.00;;;;;;5055208;28;20033;-75
2022/08/13 02:47:05;;;;;;;2.28;0.30;;;26.60;43.90;;;;;;5055771;28;20393;-75
2022/08/13 02:49:31;;;;;;;2.03;0.57;;;26.60;44.10;;;;;;5054199;28;20032;-75
2022/08/13 02:51:58;;;;;;;2.60;0.47;;;26.60;44.20;;;;;;5055489;28;20037;-75
2022/08/13 02:54:25;;;;;;;2.95;0.70;;;26.60;44.30;;;;;;5055288;28;20025;-75
2022/08/13 02:56:51;;;;;;;2.13;0.30;;;26.60;44.90;;;;;;5055366;28;20087;-75
2022/08/13 02:59:16;;;;;;;4.25;0.40;;;26.60;44.00;;;;;;5055460;28;20346;-75
2022/08/13 03:01:43;;;;;;;1.85;0.40;;;26.60;44.00;;;;;;5055174;28;20111;-75
2022/08/13 03:04:09;;;;;;;1.33;0.65;;;26.60;44.20;;;;;;5055417;28;20072;-75
2022/08/13 03:06:39;;;;;;;2.40;0.40;;;26.60;44.30;;;;;;5054972;28;20021;-75
2022/08/13 03:09:05;;;;;;;2.90;0.38;;;26.50;44.30;;;;;;5054931;28;20036;-75
2022/08/13 03:11:32;;;;;;;1.60;0.32;;;26.50;44.10;;;;;;5054667;28;20032;-75
2022/08/13 03:14:03;;;;;;;2.08;0.60;;;26.50;44.20;;;;;;5055189;28;20029;-75
2022/08/13 03:16:29;;;;;;;1.63;0.40;;;26.40;44.30;;;;;;5054992;28;20464;-75
2022/08/13 03:18:57;;;;;;;1.42;0.40;;;26.30;44.40;;;;;;5054957;28;20040;-75
2022/08/13 03:21:30;;;;;;;2.08;0.40;;;26.40;44.30;;;;;;5054790;28;20025;-75
2022/08/13 03:23:56;;;;;;;2.85;0.22;;;26.30;44.30;;;;;;5054738;28;20406;-75
2022/08/13 03:26:22;;;;;;;2.50;0.35;;;26.30;44.20;;;;;;5055073;28;20037;-75
2022/08/13 03:28:51;;;;;;;1.80;0.40;;;26.20;44.20;;;;;;5054946;28;20025;-75
2022/08/13 03:31:18;;;;;;;3.45;0.40;;;26.20;44.40;;;;;;5054713;28;20041;-75
2022/08/13 03:33:44;;;;;;;2.63;0.50;;;26.10;44.50;;;;;;5054285;28;20482;-75
2022/08/13 03:36:10;;;;;;;1.83;0.43;;;26.10;44.60;;;;;;5054563;28;20103;-75
2022/08/13 03:38:36;;;;;;;3.10;0.30;;;26.10;44.70;;;;;;5054451;28;20476;-75
2022/08/13 03:41:08;;;;;;;4.13;0.40;;;26.10;44.60;;;;;;5054692;28;20476;-75
2022/08/13 03:43:33;;;;;;;3.05;0.40;;;26.10;44.60;;;;;;5054696;28;20029;-75
2022/08/13 03:45:59;;;;;;;3.30;0.57;;;26.10;44.60;;;;;;5054334;28;20357;-75
2022/08/13 03:48:26;;;;;;;2.28;0.45;;;26.00;45.30;;;;;;5054035;28;20025;-75
2022/08/13 03:50:52;;;;;;;2.63;0.40;;;26.00;44.70;;;;;;5054175;28;20555;-75
2022/08/13 03:53:20;;;;;;;1.40;0.40;;;26.00;44.90;;;;;;5054125;28;20067;-75
2022/08/13 03:55:47;;;;;;;1.55;0.35;;;26.00;44.90;;;;;;5054151;28;20025;-75
2022/08/13 03:58:15;;;;;;;3.97;0.73;;;26.00;44.80;;;;;;5054361;28;20064;-75
2022/08/13 04:00:47;;;;;;;4.28;0.60;;;26.00;45.70;;;;;;5053992;28;20026;-75
2022/08/13 04:03:30;;;;;;;1.98;0.35;;;25.90;44.80;;;;;;5053875;28;20025;-75
2022/08/13 04:06:00;;;;;;;0.77;0.30;;;25.80;44.90;;;;;;5054319;28;20029;-75
2022/08/13 04:08:33;;;;;;;3.22;0.35;;;25.80;44.90;;;;;;5054156;28;20028;-75
2022/08/13 04:10:59;;;;;;;2.22;0.40;;;25.80;44.90;;;;;;5054228;28;20064;-75
2022/08/13 04:13:27;;;;;;;1.38;0.40;;;25.70;45.00;;;;;;5053708;28;20029;-75
2022/08/13 04:15:52;;;;;;;1.90;0.43;;;25.70;45.20;;;;;;5054072;28;20029;-75
2022/08/13 04:18:18;;;;;;;1.00;0.30;;;25.70;45.20;;;;;;5053673;28;20380;-75
2022/08/13 04:20:54;;;;;;;2.15;0.45;;;25.70;45.30;;;;;;5053750;28;20107;-75
2022/08/13 04:23:21;;;;;;;2.60;0.30;;;25.60;45.40;;;;;;5053509;28;20033;-75
2022/08/13 04:25:50;;;;;;;1.27;0.50;;;25.60;45.60;;;;;;5053852;28;20385;-75
2022/08/13 04:28:20;;;;;;;4.30;0.40;;;25.60;45.60;;;;;;5053845;28;20099;-75
2022/08/13 04:30:46;;;;;;;3.90;0.40;;;25.60;45.40;;;;;;5053322;28;20031;-75
2022/08/13 04:33:13;;;;;;;2.80;0.65;;;25.60;45.50;;;;;;5053575;28;20029;-75
2022/08/13 04:35:39;;;;;;;2.47;0.40;;;25.50;45.60;;;;;;5053814;28;20032;-75
2022/08/13 04:38:06;;;;;;;1.20;0.40;;;25.50;45.80;;;;;;5053702;28;20108;-75
2022/08/13 04:40:36;;;;;;;1.60;0.30;;;25.50;45.60;;;;;;5053645;28;20430;-75
2022/08/13 04:43:03;;;;;;;5.70;0.38;;;25.50;45.90;;;;;;5053112;28;20078;-75
2022/08/13 04:45:30;;;;;;;2.72;0.50;;;25.50;45.80;;;;;;5053233;28;20064;-75
2022/08/13 04:48:03;;;;;;;3.95;0.43;;;25.50;45.70;;;;;;5053594;28;20029;-75
2022/08/13 04:50:34;;;;;;;1.25;0.43;;;25.40;45.90;;;;;;5053577;28;20056;-75
2022/08/13 04:53:01;;;;;;;1.02;0.30;;;25.40;46.20;;;;;;5053345;28;20166;-75
2022/08/13 04:55:27;;;;;;;1.88;0.47;;;25.40;46.00;;;;;;5052835;28;20025;-75
2022/08/13 04:57:54;;;;;;;2.90;0.40;;;25.40;46.10;;;;;;5052981;28;20058;-75
2022/08/13 05:00:24;;;;;;;2.72;0.40;;;25.40;46.20;;;;;;5053419;28;20377;-75
2022/08/13 05:02:52;;;;;;;2.75;0.40;;;25.40;46.10;;;;;;5053139;28;20040;-75
2022/08/13 05:05:21;;;;;;;4.90;0.55;;;25.40;46.00;;;;;;5053202;28;20112;-75
2022/08/13 05:07:49;;;;;;;1.48;0.30;;;25.40;46.10;;;;;;5052936;28;20087;-75
2022/08/13 05:10:15;;;;;;;2.42;0.35;;;25.40;46.30;;;;;;5052922;28;20468;-75
2022/08/13 05:12:42;;;;;;;3.05;0.40;;;25.30;46.20;;;;;;5053357;28;20121;-75
2022/08/13 05:15:08;;;;;;;2.92;0.57;;;25.30;46.80;;;;;;5057373;28;20029;-75
2022/08/13 05:17:34;;;;;;;3.15;0.32;;;25.30;46.50;;;;;;5057453;28;20048;-75
2022/08/13 05:20:00;;;;;;;3.33;0.40;;;25.20;46.70;;;;;;5057072;28;20028;-74
2022/08/13 05:22:26;;;;;;;2.00;0.63;;;25.30;46.60;;;;;;5057195;28;20025;-74
2022/08/13 05:24:52;;;;;;;3.00;1.17;;;25.20;46.50;;;;;;5056635;28;20488;-74
2022/08/13 05:27:19;;;;;;;1.95;0.40;;;25.20;46.60;;;;;;5057148;28;20040;-74
2022/08/13 05:29:44;;;;;;;3.90;0.30;;;25.20;46.90;;;;;;5057100;28;20029;-74
2022/08/13 05:32:10;;;;;;;1.38;0.30;;;25.10;46.90;;;;;;5056671;28;20094;-74
2022/08/13 05:34:37;;;;;;;2.58;0.32;;;25.10;46.90;;;;;;5056984;28;20025;-74
2022/08/13 05:37:05;;;;;;;1.05;0.40;;;25.10;46.90;;;;;;5056591;28;20029;-74
2022/08/13 05:39:32;;;;;;;4.47;0.40;;;25.10;47.00;;;;;;5056823;28;20437;-74
2022/08/13 05:41:58;;;;;;;6.20;0.73;;;24.90;47.30;;;;;;5056728;28;20036;-74
2022/08/13 05:44:25;;;;;;;2.08;0.30;;;24.80;47.60;;;;;;5056456;28;20032;-74
2022/08/13 05:46:50;;;;;;;1.70;0.43;;;24.70;47.90;;;;;;5056540;28;20074;-74
2022/08/13 05:49:16;;;;;;;2.88;0.38;;;24.70;48.10;;;;;;5056697;28;20039;-74
2022/08/13 05:51:45;;;;;;;2.83;0.47;;;24.70;48.80;;;;;;5056450;28;20035;-74
2022/08/13 05:54:11;;;;;;;1.30;0.60;;;24.80;48.10;;;;;;5056037;28;20033;-74
2022/08/13 05:56:37;;;;;;;4.70;0.45;;;24.90;47.90;;;;;;5056535;28;20036;-74
2022/08/13 06:03:22;;;;;;;2.28;0.50;;;24.90;47.90;;;;;;5056481;28;20043;-74
2022/08/13 06:04:38;;;;;;;2.50;0.68;;;25.00;47.90;;;;;;5056282;28;20562;-74
2022/08/13 06:07:13;;;;;;;1.55;0.50;;;25.10;47.90;;;;;;5056340;28;20052;-74
2022/08/13 06:09:39;;;;;;;2.83;0.47;;;25.10;48.00;;;;;;5056095;28;20392;-74
2022/08/13 06:12:05;;;;;;;2.63;0.30;;;25.10;48.00;;;;;;5055984;28;20540;-74
2022/08/13 06:14:34;;;;;;;3.42;0.50;;;25.00;48.10;;;;;;5056354;28;20094;-74
2022/08/13 06:17:02;;;;;;;1.88;0.45;;;25.10;47.80;;;;;;5055741;28;20044;-74
2022/08/13 06:19:31;;;;;;;2.88;0.47;;;25.10;47.90;;;;;;5056262;28;20150;-74
2022/08/13 06:22:04;;;;;;;4.22;0.80;;;25.20;48.10;;;;;;5056048;28;20021;-73
2022/08/13 06:24:37;;;;;;;4.28;0.60;;;25.10;47.90;;;;;;5055574;28;20124;-74
2022/08/13 06:27:07;;;;;;;6.20;0.50;;;25.10;48.20;;;;;;5055689;28;20494;-74
2022/08/13 06:29:36;;;;;;;2.83;0.47;;;25.10;48.10;;;;;;5055689;28;20040;-74
2022/08/13 06:32:03;;;;;;;1.33;0.55;;;25.00;48.30;;;;;;5055798;28;20025;-74
2022/08/13 06:34:34;;;;;;;1.30;0.50;;;25.00;48.40;;;;;;5055784;28;20029;-74
2022/08/13 06:37:04;;;;;;;7.95;0.75;;;25.20;48.40;;;;;;5055570;28;20421;-74
2022/08/13 06:39:31;;;;;;;5.68;0.60;;;25.40;49.00;;;;;;5055862;28;20033;-74
2022/08/13 06:42:02;;;;;;;1.20;0.60;;;25.40;48.70;;;;;;5055556;28;20473;-74
2022/08/13 06:44:32;;;;;;;2.20;0.38;;;25.30;48.80;;;;;;5055800;28;20029;-73
2022/08/13 06:47:03;;;;;;;3.10;0.70;;;25.20;49.00;;;;;;5055687;28;20082;-74
2022/08/13 06:49:33;;;;;;;2.83;0.60;;;25.30;49.10;;;;;;5055250;28;20028;-74
2022/08/13 06:51:59;;;;;;;4.35;0.68;;;25.30;48.80;;;;;;5055600;28;20037;-75
2022/08/13 06:54:26;;;;;;;2.08;0.63;;;25.40;49.00;;;;;;5055203;28;20025;-74
2022/08/13 06:56:57;;;;;;;0.93;0.45;;;25.40;48.80;;;;;;5055983;28;20033;-75
2022/08/13 06:59:23;;;;;;;5.43;0.63;;;25.50;48.60;;;;;;5055394;28;20036;-74
2022/08/13 07:01:57;;;;;;;2.83;0.70;;;25.60;48.50;;;;;;5055256;28;20040;-74
2022/08/13 07:04:24;;;;;;;2.58;0.50;;;25.70;48.60;;;;;;5055007;28;20021;-74
2022/08/13 07:06:51;;;;;;;5.65;0.80;;;25.80;48.80;;;;;;5055060;28;20036;-75
2022/08/13 07:09:18;;;;;;;2.97;0.75;;;25.80;48.40;;;;;;5055388;28;20033;-74
2022/08/13 07:11:45;;;;;;;3.05;0.70;;;25.90;48.50;;;;;;5054900;28;20045;-74
2022/08/13 07:14:13;;;;;;;2.28;0.60;;;26.00;48.60;;;;;;5055270;28;20029;-74
2022/08/13 07:16:41;;;;;;;2.58;0.70;;;26.00;48.70;;;;;;5055009;28;20032;-74
2022/08/13 07:19:06;;;;;;;9.93;1.15;;;26.10;48.60;;;;;;5054869;28;20443;-74
2022/08/13 07:21:33;;;;;;;1.95;0.60;;;26.20;48.90;;;;;;5055086;28;20021;-74
2022/08/13 07:24:02;;;;;;;2.25;0.70;;;26.20;48.70;;;;;;5054789;28;20045;-74
2022/08/13 07:26:31;;;;;;;4.00;0.70;;;26.40;48.70;;;;;;5054997;28;20487;-74
2022/08/13 07:28:56;;;;;;;4.60;0.75;;;26.50;48.50;;;;;;5054761;28;20021;-74
2022/08/13 07:31:30;;;;;;;3.85;0.70;;;26.50;48.50;;;;;;5054476;28;20042;-74
2022/08/13 07:33:58;;;;;;;3.33;0.57;;;26.60;48.60;;;;;;5054568;28;20021;-74
2022/08/13 07:36:27;;;;;;;4.90;0.70;;;26.50;48.70;;;;;;5053876;28;20029;-74
2022/08/13 07:38:53;;;;;;;4.53;0.80;;;26.60;48.20;;;;;;5054742;28;20111;-74
2022/08/13 07:41:20;;;;;;;2.08;0.70;;;26.60;48.20;;;;;;5054361;28;20041;-75
2022/08/13 07:43:47;;;;;;;7.63;0.73;;;26.60;48.40;;;;;;5054465;28;20033;-74
2022/08/13 07:46:17;;;;;;;8.65;0.75;;;26.60;48.60;;;;;;5054304;28;20040;-74
2022/08/13 07:48:49;;;;;;;4.00;0.75;;;26.70;48.10;;;;;;5054207;28;20035;-75
2022/08/13 07:51:21;;;;;;;3.10;0.60;;;26.80;48.60;;;;;;5054535;28;21971;-74
2022/08/13 07:53:47;;;;;;;;;;;27.00;48.70;;;;;;5054775;28;20044;-75
2022/08/13 07:56:21;;;;;;;6.82;0.85;;;27.10;48.70;;;;;;5054185;28;19987;-75
2022/08/13 07:58:47;;;;;;;7.88;0.70;;;27.20;48.40;;;;;;5054356;28;20025;-75
2022/08/13 08:01:13;;;;;;;2.75;0.90;;;27.30;48.00;;;;;;5053670;28;20544;-75
2022/08/13 08:03:42;;;;;;;1.02;0.40;;;27.40;48.10;;;;;;5054349;28;20530;-74
2022/08/13 08:06:10;;;;;;;3.28;2.90;;;27.50;48.10;;;;;;5054090;28;20071;-74
2022/08/13 08:08:42;;;;;;;7.78;3.85;;;27.70;48.10;;;;;;5053628;28;20535;-75
2022/08/13 08:14:00;;;;;;;4.95;1.15;;;28.00;47.80;;;;;;5054102;28;20407;-75
2022/08/13 08:16:35;;;;;;;5.65;0.70;;;28.10;47.30;;;;;;5053656;28;20025;-75
2022/08/13 08:19:02;;;;;;;3.58;0.65;;;28.20;46.10;;;;;;5053810;28;20385;-74
2022/08/13 08:21:28;;;;;;;6.05;0.60;;;28.30;47.00;;;;;;5053739;28;20021;-75
2022/08/13 08:23:59;;;;;;;1.58;0.60;;;28.20;46.00;;;;;;5053395;28;20073;-75
2022/08/13 08:26:31;;;;;;;7.28;0.70;;;28.30;46.30;;;;;;5053721;28;20096;-75
2022/08/13 08:28:59;;;;;;;2.40;0.65;;;28.30;46.20;;;;;;5053479;28;20035;-75
2022/08/13 08:31:26;;;;;;;5.30;0.80;;;28.40;46.30;;;;;;5053375;28;20472;-74
2022/08/13 08:33:57;;;;;;;4.93;0.65;;;28.40;45.80;;;;;;5053270;28;20033;-75
2022/08/13 08:36:24;;;;;;;2.33;1.20;;;28.60;46.40;;;;;;5053708;28;20025;-75
2022/08/13 08:44:24;;;;;;;1.98;0.68;;;28.80;45.80;;;;;;5053489;28;20435;-75
2022/08/13 08:46:53;;;;;;;2.78;0.52;;;28.90;45.70;;;;;;5053220;28;20104;-75
2022/08/13 08:49:21;;;;;;;5.75;0.90;;;28.90;45.40;;;;;;5053496;28;20021;-75
2022/08/13 08:51:49;;;;;;;1.67;0.68;;;29.10;46.30;;;;;;5053460;28;20037;-75
2022/08/13 08:54:15;;;;;;;3.58;0.65;;;29.20;45.60;;;;;;5053173;28;20021;-75
2022/08/13 08:56:41;;;;;;;3.22;0.52;;;29.30;45.70;;;;;;5052852;28;20047;-74
2022/08/13 08:59:09;;;;;;;2.03;0.88;;;29.50;44.50;;;;;;5053208;28;20032;-75
2022/08/13 09:01:35;;;;;;;3.10;0.50;;;29.50;45.00;;;;;;5053090;28;20033;-75
2022/08/13 09:04:05;;;;;;;2.72;0.68;;;29.70;44.70;;;;;;5053260;28;20028;-74
2022/08/13 09:06:31;;;;;;;2.75;0.90;;;29.80;44.80;;;;;;5053339;28;20025;-74
2022/08/13 09:09:00;;;;;;;2.30;0.55;;;29.90;44.60;;;;;;5053147;28;20388;-75
2022/08/13 09:11:29;;;;;;;2.08;0.50;;;29.90;44.90;;;;;;5053066;28;20029;-75
2022/08/13 09:13:55;;;;;;;4.80;0.77;;;30.00;44.40;;;;;;5052918;28;20545;-75
2022/08/13 09:16:20;;;;;;;4.90;0.50;;;30.20;44.40;;;;;;5052909;28;20139;-75
2022/08/13 09:18:50;;;;;;;3.78;0.52;;;30.20;43.30;;;;;;5053148;28;20036;-75
2022/08/13 09:21:17;;;;;;;1.80;0.70;;;30.20;43.20;;;;;;5052749;28;20480;-75
2022/08/13 09:23:46;;;;;;;1.85;0.30;;;30.20;43.50;;;;;;5052765;28;20048;-75
2022/08/13 09:26:14;;;;;;;4.65;1.08;;;30.30;43.20;;;;;;5052899;28;20100;-75
2022/08/13 09:28:42;;;;;;;3.20;0.63;;;30.40;42.80;;;;;;5052717;28;20029;-75
2022/08/13 09:31:10;;;;;;;4.15;0.50;;;30.60;42.30;;;;;;5053031;28;20090;-75
2022/08/13 09:33:38;;;;;;;1.38;0.45;;;30.60;41.50;;;;;;5052944;28;20112;-75
2022/08/13 09:36:07;;;;;;;4.55;0.60;;;30.70;41.60;;;;;;5052967;28;20104;-75
2022/08/13 09:38:34;;;;;;;4.25;0.70;;;30.80;42.00;;;;;;5052801;28;20059;-75
2022/08/13 09:41:25;;;;;;;2.22;0.65;;;30.90;41.50;;;;;;5052961;28;20112;-75
2022/08/13 09:43:51;;;;;;;2.75;0.40;;;31.10;40.80;;;;;;5052904;28;20035;-75
2022/08/13 09:46:23;;;;;;;3.85;0.52;;;31.30;41.20;;;;;;5052476;28;20473;-75
2022/08/13 09:48:51;;;;;;;3.83;0.40;;;31.30;40.80;;;;;;5052514;28;20025;-75
2022/08/13 09:51:17;;;;;;;4.45;0.55;;;31.40;40.40;;;;;;5052777;28;20154;-75
2022/08/13 09:53:46;;;;;;;1.60;0.68;;;31.40;41.00;;;;;;5052425;28;20480;-75
2022/08/13 09:56:17;;;;;;;1.75;0.30;;;31.50;40.80;;;;;;5052483;28;20036;-75
2022/08/13 09:58:49;;;;;;;1.75;0.30;;;31.50;40.60;;;;;;5052796;28;20021;-75
2022/08/13 10:01:15;;;;;;;2.72;0.30;;;31.60;39.90;;;;;;5056560;28;20053;-75
2022/08/13 10:03:42;;;;;;;3.78;0.45;;;31.80;39.30;;;;;;5056152;28;20053;-76
2022/08/13 10:06:09;;;;;;;2.40;0.40;;;31.90;40.20;;;;;;5056384;28;20078;-76
2022/08/13 10:08:35;;;;;;;0.55;0.20;;;31.90;40.30;;;;;;5055772;28;20029;-75
2022/08/13 10:11:01;;;;;;;3.13;0.30;;;32.10;39.30;;;;;;5055663;28;20078;-76
2022/08/13 10:13:26;;;;;;;1.00;0.30;;;32.10;38.90;;;;;;5056317;28;20392;-75
2022/08/13 10:15:52;;;;;;;1.95;0.20;;;32.00;38.30;;;;;;5056314;28;20017;-75
2022/08/13 10:18:17;;;;;;;1.75;0.40;;;32.00;39.60;;;;;;5054976;28;20439;-75
2022/08/13 10:20:48;;;;;;;3.35;0.30;;;32.10;39.00;;;;;;5055769;28;20476;-75
2022/08/13 10:23:15;;;;;;;3.40;0.33;;;32.30;39.00;;;;;;5055979;28;20025;-75
2022/08/13 10:25:43;;;;;;;0.70;0.28;;;32.40;39.20;;;;;;5055737;28;20271;-75
2022/08/13 10:28:17;;;;;;;5.07;0.30;;;32.50;39.40;;;;;;5056095;28;20103;-75
2022/08/13 10:30:43;;;;;;;2.65;0.20;;;32.70;38.90;;;;;;5055527;28;20025;-76
2022/08/13 10:33:11;;;;;;;1.65;0.45;;;32.70;38.20;;;;;;5055860;28;20067;-75
2022/08/13 10:35:37;;;;;;;1.60;0.30;;;32.80;38.10;;;;;;5055666;28;20397;-76
2022/08/13 10:38:05;;;;;;;3.75;0.30;;;32.90;38.40;;;;;;5055909;28;20028;-76
2022/08/13 10:40:31;;;;;;;1.38;0.28;;;32.90;38.80;;;;;;5055683;28;20113;-76
2022/08/13 10:42:56;;;;;;;2.20;0.30;;;33.00;38.40;;;;;;5055540;28;20056;-76
2022/08/13 10:45:26;;;;;;;1.58;0.25;;;33.10;38.10;;;;;;5055200;28;20021;-76
2022/08/13 10:47:54;;;;;;;0.77;0.20;;;33.20;37.30;;;;;;5055231;28;20029;-76
2022/08/13 10:50:22;;;;;;;0.88;0.20;;;33.30;37.50;;;;;;5055389;28;20025;-76
2022/08/13 10:52:48;;;;;;;3.47;0.60;;;33.20;37.10;;;;;;5055507;28;20373;-76
2022/08/13 10:55:15;;;;;;;1.77;0.40;;;33.20;37.60;;;;;;5055283;28;20475;-76
2022/08/13 10:57:43;;;;;;;3.60;0.30;;;33.10;37.60;;;;;;5054959;28;20064;-76
2022/08/13 11:00:11;;;;;;;2.00;0.30;;;33.30;37.80;;;;;;5055511;28;20021;-76
2022/08/13 11:02:37;;;;;;;2.22;0.20;;;33.40;37.20;;;;;;5054997;28;20511;-76
2022/08/13 11:05:10;;;;;;;0.47;0.20;;;33.60;37.30;;;;;;5055300;28;20029;-76
2022/08/13 11:07:37;;;;;;;2.45;0.20;;;33.70;36.90;;;;;;5055073;28;20029;-76
2022/08/13 11:10:05;;;;;;;1.67;0.20;;;33.80;37.20;;;;;;5054536;28;20060;-76
2022/08/13 11:12:31;;;;;;;1.60;0.28;;;33.90;36.30;;;;;;5054283;28;20559;-76
2022/08/13 11:14:56;;;;;;;2.70;0.30;;;33.90;36.50;;;;;;5055181;28;20108;-76
2022/08/13 11:17:25;;;;;;;0.82;0.30;;;33.90;36.00;;;;;;5055069;28;20170;-76
2022/08/13 11:19:51;;;;;;;1.85;0.20;;;34.00;36.30;;;;;;5054817;28;20033;-76
2022/08/13 11:22:18;;;;;;;1.15;0.30;;;34.00;36.00;;;;;;5054896;28;20029;-76
2022/08/13 11:24:43;;;;;;;2.38;0.50;;;34.10;36.30;;;;;;5054582;28;20049;-76
2022/08/13 11:27:09;;;;;;;2.30;0.20;;;34.20;36.40;;;;;;5054969;28;20058;-76
2022/08/13 11:29:35;;;;;;;0.75;0.30;;;34.30;35.70;;;;;;5054640;28;20024;-76
2022/08/13 11:32:01;;;;;;;1.58;0.30;;;34.40;36.20;;;;;;5054294;28;20468;-76
2022/08/13 11:34:26;;;;;;;4.45;0.28;;;34.50;35.70;;;;;;5054921;28;20029;-76
2022/08/13 11:36:53;;;;;;;2.22;0.40;;;34.60;36.40;;;;;;5054633;28;20416;-76
2022/08/13 11:39:19;;;;;;;2.83;0.13;;;34.70;35.30;;;;;;5054558;28;20025;-76
2022/08/13 11:41:45;;;;;;;0.45;0.20;;;34.70;34.70;;;;;;5054522;28;20029;-76
2022/08/13 11:44:11;;;;;;;2.67;0.40;;;34.70;33.70;;;;;;5054196;28;20048;-76
2022/08/13 11:46:38;;;;;;;2.47;0.30;;;34.80;34.70;;;;;;5054459;28;20025;-76
2022/08/13 11:49:04;;;;;;;1.92;0.20;;;34.70;34.90;;;;;;5054345;28;20017;-76
2022/08/13 11:51:30;;;;;;;2.55;0.47;;;34.70;35.00;;;;;;5054409;28;20025;-76
2022/08/13 11:53:56;;;;;;;3.42;0.30;;;34.80;35.60;;;;;;5054048;28;20036;-76
2022/08/13 11:56:21;;;;;;;3.83;0.20;;;34.80;35.50;;;;;;5054217;28;20518;-76
2022/08/13 11:58:47;;;;;;;0.73;0.30;;;34.70;35.30;;;;;;5054041;28;20039;-76
2022/08/13 12:01:18;;;;;;;2.92;0.20;;;34.70;35.60;;;;;;5054079;28;20021;-76
2022/08/13 12:03:44;;;;;;;1.63;0.30;;;34.70;35.00;;;;;;5053882;28;20059;-76
2022/08/13 12:06:10;;;;;;;5.05;0.30;;;34.80;35.10;;;;;;5053601;28;20025;-76
2022/08/13 12:08:36;;;;;;;3.33;0.30;;;34.80;35.70;;;;;;5053423;28;20108;-76
2022/08/13 12:11:03;;;;;;;1.45;0.30;;;34.80;34.60;;;;;;5053805;28;20051;-76
2022/08/13 12:13:28;;;;;;;1.10;0.50;;;34.80;35.10;;;;;;5053389;28;20043;-76
2022/08/13 12:15:54;;;;;;;0.88;0.22;;;34.70;34.90;;;;;;5053853;28;20021;-76
2022/08/13 12:18:20;;;;;;;3.58;0.20;;;34.70;34.90;;;;;;5053561;28;20029;-76
2022/08/13 12:20:46;;;;;;;2.67;0.30;;;34.80;34.80;;;;;;5052988;28;20464;-76
2022/08/13 12:23:12;;;;;;;2.08;0.25;;;34.90;34.90;;;;;;5053075;28;20025;-75
2022/08/13 12:25:37;;;;;;;1.73;0.30;;;35.00;34.60;;;;;;5053147;28;20043;-76
2022/08/13 12:28:19;;;;;;;1.55;0.20;;;34.90;34.10;;;;;;5053333;28;20033;-76
2022/08/13 12:30:49;;;;;;;3.80;0.20;;;34.80;34.50;;;;;;5052995;28;20032;-76
2022/08/13 12:33:16;;;;;;;1.03;0.20;;;34.90;35.10;;;;;;5053354;28;20086;-76
2022/08/13 12:35:42;;;;;;;1.95;0.20;;;34.90;34.70;;;;;;5053434;28;20264;-76
2022/08/13 12:38:13;;;;;;;2.92;0.68;;;35.00;34.40;;;;;;5053426;28;20032;-76
2022/08/13 12:40:41;;;;;;;1.73;0.30;;;35.00;34.30;;;;;;5053240;28;20392;-76
2022/08/13 12:43:07;;;;;;;2.28;0.20;;;35.00;33.90;;;;;;5053619;28;20676;-76
2022/08/13 12:45:34;;;;;;;0.95;0.35;;;34.90;34.50;;;;;;5053270;28;20056;-76
2022/08/13 12:48:08;;;;;;;1.98;0.20;;;35.00;34.70;;;;;;5053140;28;20468;-76
2022/08/13 12:50:36;;;;;;;1.85;0.22;;;35.10;34.00;;;;;;5052872;28;20021;-76
2022/08/13 12:53:02;;;;;;;0.50;0.20;;;35.10;34.10;;;;;;5052782;28;20036;-76
2022/08/13 12:55:28;;;;;;;4.93;0.30;;;35.20;33.90;;;;;;5052881;28;20021;-76
2022/08/13 12:57:55;;;;;;;1.70;0.30;;;35.20;34.30;;;;;;5053282;28;20075;-76
2022/08/13 13:00:21;;;;;;;2.08;0.20;;;35.20;33.90;;;;;;5053351;28;20144;-76
2022/08/13 13:02:47;;;;;;;3.35;0.20;;;35.40;34.00;;;;;;5052713;28;20067;-76
2022/08/13 13:05:14;;;;;;;1.55;0.10;;;35.40;33.80;;;;;;5053054;28;20036;-76
2022/08/13 13:07:41;;;;;;;2.40;0.32;;;35.60;33.40;;;;;;5053347;28;20095;-76
2022/08/13 13:10:07;;;;;;;1.80;0.28;;;35.80;34.00;;;;;;5052996;28;20039;-76
2022/08/13 13:12:33;;;;;;;2.08;0.20;;;35.80;33.70;;;;;;5053237;28;20118;-76